METAR Reports

Area Airport Weather Conditions

KBDL - Windsor Locks, Connecticut, USA
Distance from station: NE 45mi, 72km
Updated: 6:51PM EDT, July 23, 2019
Mostly cloudy
Mostly cloudy
 Wind from SSE
Wind: SSE 6 mph , 9 km/h
Temperature: 72°F , 22°C
Dew Point: 61°F , 16°C
Humidity: 69%
Barometer: 29.89 inHg , 1012.2 hPa
Clouds: Mostly cloudy
Visibility: 10 miles , 16 km
Cloud details: Few Clouds 5500 ft
Few Clouds 11000 ft
Mostly cloudy 21000 ft
2019/07/23 22:51 KBDL 232251Z 16005KT 10SM FEW055 FEW110 BKN210 22/16 A2989 RMK AO2 SLP119 T02220161
KDXR - Danbury, Connecticut, USA
Distance from station: SSW 15mi, 24km
Updated: 6:53PM EDT, July 23, 2019
Clear
Clear
 Wind from calm
Wind: Calm
Temperature: 70°F , 21°C
Dew Point: 64°F , 18°C
Humidity: 83%
Barometer: 29.92 inHg , 1013.2 hPa
Clouds: Clear
Visibility: 10 miles , 16 km
2019/07/23 22:53 KDXR 232253Z 00000KT 10SM CLR 21/18 A2992 RMK AO2 SLP129 T02060178
 
KOXC - Oxford/Waterbury, Connecticut, USA
Distance from station: ESE 16mi, 26km
Updated: 6:51PM EDT, July 23, 2019
Overcast
Overcast
 Wind from calm
Wind: Calm
Temperature: 68°F , 20°C
Dew Point: 64°F , 18°C
Humidity: 88%
Barometer: 29.92 inHg , 1013.2 hPa
Clouds: Overcast
Visibility: 10 miles , 16 km
Cloud details: Overcast 6500 ft
2019/07/23 22:51 KOXC 232251Z 00000KT 10SM OVC065 20/18 A2992 RMK AO2 RAB2155E11 SLP142 P0000 T02000178
KPOU - Poughkeepsie, New York, USA
Distance from station: W 25mi, 40km
Updated: 6:53PM EDT, July 23, 2019
Mostly cloudy
Mostly cloudy
 Wind from calm
Wind: Calm
Temperature: 73°F , 23°C
Dew Point: 63°F , 17°C
Humidity: 69%
Barometer: 29.88 inHg , 1011.9 hPa
Clouds: Mostly cloudy
Visibility: 10 miles , 16 km
Cloud details: Mostly cloudy 9500 ft
2019/07/23 22:53 KPOU 232253Z 00000KT 10SM BKN095 23/17 A2988 RMK AO2 SLP115 T02280167
 
KMMK - Meriden, Connecticut, USA
Distance from station: E 30mi, 48km
Updated: 6:53PM EDT, July 23, 2019
Clear
Clear
 Wind from SSE
Wind: SSE 3 mph , 6 km/h
Temperature: 72°F , 22°C
Dew Point: 63°F , 17°C
Humidity: 73%
Barometer: 29.89 inHg , 1012.2 hPa
Clouds: Clear
Visibility: 10 miles , 16 km
2019/07/23 22:53 KMMK 232253Z AUTO 16003KT 10SM CLR 22/17 A2989 RMK AO2 SLP121 T02220167 $
KBDR - Bridgeport, Connecticut, USA
Distance from station: SSE 32mi, 51km
Updated: 6:52PM EDT, July 23, 2019
Mostly cloudy
Mostly cloudy
 Wind from ESE
Wind: ESE 6 mph , 9 km/h
Temperature: 72°F , 22°C
Dew Point: 64°F , 18°C
Humidity: 78%
Barometer: 29.90 inHg , 1012.5 hPa
Clouds: Mostly cloudy
Visibility: 10 miles , 16 km
Cloud details: Mostly cloudy 4500 ft
Mostly cloudy 6000 ft
2019/07/23 22:52 KBDR 232252Z 12005KT 10SM BKN045 BKN060 22/18 A2990 RMK AO2 SLP123 T02220183
 
KHVN - New Haven/Tweed, Connecticut, USA
Distance from station: SE 35mi, 57km
Updated: 6:53PM EDT, July 23, 2019
Mostly cloudy
Mostly cloudy
 Wind from SE
Wind: SE 8 mph , 13 km/h
Temperature: 73°F , 23°C
Dew Point: 64°F , 18°C
Humidity: 74%
Barometer: 29.90 inHg , 1012.5 hPa
Clouds: Mostly cloudy
Visibility: 10 miles , 16 km
Cloud details: Few Clouds 2500 ft
Mostly cloudy 6000 ft
2019/07/23 22:53 KHVN 232253Z 14007KT 10SM FEW025 BKN060 23/18 A2990 RMK AO2 SLP125 T02280183
KSWF - Newburgh/Stewart, New York, USA
Distance from station: W 35mi, 57km
Updated: 6:45PM EDT, July 23, 2019
Overcast
Overcast
 Wind from ENE
Wind: ENE 5 mph , 7 km/h
Temperature: 73°F , 23°C
Dew Point: 59°F , 15°C
Humidity: 61%
Barometer: 29.91 inHg , 1012.9 hPa
Clouds: Overcast
Visibility: 10 miles , 16 km
Cloud details: Mostly cloudy 2000 ft
Overcast 6000 ft
2019/07/23 22:45 KSWF 232245Z 06004KT 10SM BKN020 OVC060 23/15 A2991
 
KHPN - White Plains, New York, USA
Distance from station: SSW 38mi, 62km
Updated: 6:56PM EDT, July 23, 2019
Mostly cloudy
Mostly cloudy
 Wind from ESE
Wind: ESE 7 mph , 11 km/h
Temperature: 70°F , 21°C
Dew Point: 64°F , 18°C
Humidity: 83%
Barometer: 29.90 inHg , 1012.5 hPa
Clouds: Mostly cloudy
Visibility: 10 miles , 16 km
Cloud details: Few Clouds 2000 ft
Few Clouds 4200 ft
Mostly cloudy 6500 ft
2019/07/23 22:56 KHPN 232256Z 11006KT 10SM FEW020 FEW042 BKN065 21/18 A2990 RMK AO2 SLP121 T02060178
KHFD - Hartford/Brainar, Connecticut, USA
Distance from station: ENE 41mi, 65km
Updated: 6:53PM EDT, July 23, 2019
Clear
Clear
 Wind from calm
Wind: Calm
Temperature: 72°F , 22°C
Dew Point: 63°F , 17°C
Humidity: 73%
Barometer: 29.88 inHg , 1011.9 hPa
Clouds: Clear
Visibility: 10 miles , 16 km
2019/07/23 22:53 KHFD 232253Z 00000KT 10SM CLR 22/17 A2988 RMK AO2 SLP119 T02220167 $